createdAt,value
2019-04-23T00:00:20.424Z,14.04
2019-04-23T00:01:29.094Z,14.04
2019-04-23T00:02:31.626Z,14.01
2019-04-23T00:03:38.890Z,13.98
2019-04-23T00:04:46.905Z,13.91
2019-04-23T00:05:57.938Z,13.86
2019-04-23T00:07:12.871Z,13.95
2019-04-23T00:08:11.409Z,13.85
2019-04-23T00:09:22.388Z,13.86
2019-04-23T00:10:26.078Z,13.93
2019-04-23T00:12:44.819Z,13.93
2019-04-23T00:13:45.534Z,13.79
2019-04-23T00:14:54.791Z,13.76
2019-04-23T00:16:00.499Z,13.80
2019-04-23T00:16:57.840Z,13.70
2019-04-23T00:18:10.176Z,13.73
2019-04-23T00:19:11.657Z,13.67
2019-04-23T00:20:20.477Z,13.68
2019-04-23T00:21:31.898Z,13.78
2019-04-23T00:22:39.804Z,13.65
2019-04-23T00:23:44.677Z,13.65
2019-04-23T00:25:20.576Z,13.64
2019-04-23T00:25:52.595Z,13.58
2019-04-23T00:27:06.591Z,13.65
2019-04-23T00:28:16.181Z,13.68
2019-04-23T00:29:18.961Z,13.65
2019-04-23T00:30:18.815Z,13.60
2019-04-23T00:31:46.413Z,13.54
2019-04-23T00:32:36.306Z,13.52
2019-04-23T00:33:36.152Z,13.57
2019-04-23T00:34:49.624Z,13.47
2019-04-23T00:35:49.864Z,13.50
2019-04-23T00:37:01.664Z,13.46
2019-04-23T00:38:10.490Z,13.47
2019-04-23T00:39:08.228Z,13.45
2019-04-23T00:40:23.423Z,13.33
2019-04-23T00:41:24.971Z,13.42
2019-04-23T00:42:36.606Z,13.46
2019-04-23T00:43:43.257Z,13.40
2019-04-23T00:44:47.888Z,13.36
2019-04-23T00:45:53.301Z,13.37
2019-04-23T00:46:54.696Z,13.37
2019-04-23T00:48:02.015Z,13.24
2019-04-23T00:49:12.127Z,13.28
2019-04-23T00:51:22.341Z,13.39
2019-04-23T00:52:33.524Z,13.30
2019-04-23T00:53:34.212Z,13.33
2019-04-23T00:55:47.715Z,13.33
2019-04-23T00:58:10.408Z,13.21
2019-04-23T00:59:05.598Z,13.33
2019-04-23T01:01:31.931Z,13.21
2019-04-23T01:02:33.051Z,13.17
2019-04-23T01:03:33.802Z,13.09
2019-04-23T01:05:50.271Z,13.05
2019-04-23T01:06:58.305Z,13.08
2019-04-23T01:08:05.101Z,13.01
2019-04-23T01:09:22.225Z,13.03
2019-04-23T01:10:16.977Z,13.01
2019-04-23T01:11:20.027Z,13.05
2019-04-23T01:12:31.638Z,12.99
2019-04-23T01:13:39.378Z,12.94
2019-04-23T01:14:41.043Z,12.91
2019-04-23T01:15:46.705Z,12.94
2019-04-23T01:16:49.513Z,12.99
2019-04-23T01:18:02.160Z,12.84
2019-04-23T01:19:07.231Z,12.94
2019-04-23T01:20:08.225Z,12.95
2019-04-23T01:20:58.562Z,12.90
2019-04-23T01:22:00.144Z,12.93
2019-04-23T01:23:01.192Z,12.88
2019-04-23T01:24:06.232Z,12.87
2019-04-23T01:25:21.257Z,12.83
2019-04-23T01:26:39.952Z,12.80
2019-04-23T01:27:51.471Z,12.90
2019-04-23T01:28:55.930Z,12.90
2019-04-23T01:30:08.451Z,12.81
2019-04-23T01:31:08.887Z,12.84
2019-04-23T01:32:17.552Z,12.80
2019-04-23T01:33:29.180Z,12.80
2019-04-23T01:34:36.604Z,12.86
2019-04-23T01:35:43.065Z,12.73
2019-04-23T01:36:35.668Z,12.69
2019-04-23T01:37:58.108Z,12.66
2019-04-23T01:39:00.417Z,12.65
2019-04-23T01:40:07.694Z,12.75
2019-04-23T01:41:09.723Z,12.66
2019-04-23T01:42:22.425Z,12.58
2019-04-23T01:43:23.571Z,12.57
2019-04-23T01:44:31.267Z,12.57
2019-04-23T01:46:45.868Z,12.63
2019-04-23T01:47:51.842Z,12.65
2019-04-23T01:49:02.137Z,12.58
2019-04-23T01:50:09.958Z,12.57
2019-04-23T01:51:09.588Z,12.55
2019-04-23T01:52:24.882Z,12.47
2019-04-23T01:53:31.814Z,12.58
2019-04-23T01:54:30.493Z,12.54
2019-04-23T01:55:43.750Z,12.58
2019-04-23T01:56:40.001Z,12.57
2019-04-23T01:59:00.274Z,12.54
2019-04-23T02:00:11.652Z,12.51
2019-04-23T02:01:11.582Z,12.51
2019-04-23T02:02:19.350Z,12.47
2019-04-23T02:03:21.440Z,12.45
2019-04-23T02:04:32.093Z,12.43
2019-04-23T02:06:44.906Z,12.36
2019-04-23T02:09:00.538Z,12.40
2019-04-23T02:10:11.626Z,12.43
2019-04-23T02:11:10.528Z,12.44
2019-04-23T02:12:21.602Z,12.30
2019-04-23T02:13:28.604Z,12.39
2019-04-23T02:14:28.086Z,12.37
2019-04-23T02:15:38.111Z,12.37
2019-04-23T02:16:55.117Z,12.30
2019-04-23T02:17:53.724Z,12.39
2019-04-23T02:19:04.486Z,12.26
2019-04-23T02:20:09.191Z,12.32
2019-04-23T02:21:05.624Z,12.32
2019-04-23T02:22:21.886Z,12.28
2019-04-23T02:24:39.742Z,12.25
2019-04-23T02:27:58.231Z,12.25
2019-04-23T02:30:15.129Z,12.25
2019-04-23T02:32:37.755Z,12.23
2019-04-23T02:34:40.618Z,12.17
2019-04-23T02:35:52.387Z,12.15
2019-04-23T02:41:31.735Z,12.05
2019-04-23T02:42:40.922Z,12.03
2019-04-23T02:43:22.001Z,12.08
2019-04-23T02:45:50.349Z,12.03
2019-04-23T02:46:51.707Z,12.07
2019-04-23T02:48:03.391Z,12.05
2019-04-23T02:50:20.061Z,11.91
2019-04-23T02:51:10.955Z,11.86
2019-04-23T02:52:34.387Z,11.81
2019-04-23T02:55:43.053Z,11.95
2019-04-23T02:57:54.293Z,11.89
2019-04-23T02:59:08.095Z,11.91
2019-04-23T03:01:21.893Z,11.91
2019-04-23T03:04:37.194Z,11.93
2019-04-23T03:07:54.139Z,11.91
2019-04-23T03:10:03.226Z,11.91
2019-04-23T03:11:27.577Z,11.77
2019-04-23T03:18:04.854Z,11.83
2019-04-23T03:19:08.307Z,11.76
2019-04-23T03:20:07.929Z,11.78
2019-04-23T03:25:40.078Z,11.76
2019-04-23T03:27:11.020Z,11.68
2019-04-23T03:27:40.909Z,11.71
2019-04-23T03:30:08.183Z,11.80
2019-04-23T03:32:48.224Z,11.78
2019-04-23T03:35:19.459Z,11.70
2019-04-23T03:36:18.407Z,11.73
2019-04-23T03:37:09.330Z,11.78
2019-04-23T03:40:03.809Z,11.60
2019-04-23T03:41:17.247Z,11.68
2019-04-23T03:43:25.455Z,11.62
2019-04-23T03:44:30.010Z,11.63
2019-04-23T03:47:48.527Z,11.74
2019-04-23T03:48:53.220Z,11.80
2019-04-23T03:50:19.733Z,11.71
2019-04-23T03:51:11.640Z,11.71
2019-04-23T03:53:29.893Z,11.76
2019-04-23T03:54:31.982Z,11.77
2019-04-23T03:55:37.119Z,11.80
2019-04-23T03:56:57.140Z,11.78
2019-04-23T03:57:37.975Z,11.68
2019-04-23T04:00:03.743Z,11.76
2019-04-23T04:01:07.365Z,11.70
2019-04-23T04:02:19.678Z,11.70
2019-04-23T04:04:31.216Z,11.65
2019-04-23T04:05:45.447Z,11.65
2019-04-23T04:08:56.027Z,11.65
2019-04-23T04:11:14.641Z,11.62
2019-04-23T04:12:16.614Z,11.67
2019-04-23T04:13:20.066Z,11.55
2019-04-23T04:14:33.872Z,11.56
2019-04-23T04:15:46.656Z,11.55
2019-04-23T04:16:34.212Z,11.55
2019-04-23T04:17:35.948Z,11.60
2019-04-23T04:21:09.499Z,11.62
2019-04-23T04:22:11.420Z,11.59
2019-04-23T04:23:24.237Z,11.59
2019-04-23T04:25:33.766Z,11.59
2019-04-23T04:27:45.743Z,11.56
2019-04-23T04:29:00.031Z,11.56
2019-04-23T04:29:51.874Z,11.60
2019-04-23T04:30:53.891Z,11.62
2019-04-23T04:32:22.030Z,11.56
2019-04-23T04:33:33.964Z,11.55
2019-04-23T04:35:42.189Z,11.63
2019-04-23T04:37:57.349Z,11.56
2019-04-23T04:41:03.012Z,11.74
2019-04-23T04:43:22.408Z,11.67
2019-04-23T04:46:39.803Z,11.60
2019-04-23T04:48:49.219Z,11.78
2019-04-23T04:51:14.939Z,11.73
2019-04-23T04:52:21.921Z,11.76
2019-04-23T04:53:23.286Z,11.78
2019-04-23T04:54:18.903Z,11.76
2019-04-23T04:55:28.383Z,11.80
2019-04-23T04:57:39.983Z,11.77
2019-04-23T04:58:56.450Z,11.80
2019-04-23T05:00:01.704Z,11.85
2019-04-23T05:02:25.742Z,11.97
2019-04-23T05:04:30.774Z,11.99
2019-04-23T05:06:39.140Z,12.03
2019-04-23T05:08:51.154Z,12.05
2019-04-23T05:11:02.104Z,12.11
2019-04-23T05:13:33.897Z,12.18
2019-04-23T05:14:13.039Z,12.15
2019-04-23T05:15:18.791Z,12.23
2019-04-23T05:16:27.807Z,12.17
2019-04-23T05:17:42.541Z,12.23
2019-04-23T05:18:47.424Z,12.30
2019-04-23T05:20:58.199Z,12.25
2019-04-23T05:23:16.547Z,12.32
2019-04-23T05:24:08.862Z,12.29
2019-04-23T05:25:12.323Z,12.37
2019-04-23T05:27:37.276Z,12.35
2019-04-23T05:28:44.552Z,12.47
2019-04-23T05:29:46.598Z,12.47
2019-04-23T05:30:51.550Z,12.45
2019-04-23T05:31:52.954Z,12.51
2019-04-23T05:33:11.884Z,12.58
2019-04-23T05:34:11.903Z,12.53
2019-04-23T05:36:37.431Z,12.53
2019-04-23T05:37:56.855Z,12.63
2019-04-23T05:38:50.435Z,12.73
2019-04-23T05:40:22.389Z,12.63
2019-04-23T05:41:03.737Z,12.72
2019-04-23T05:41:58.493Z,12.80
2019-04-23T05:43:12.400Z,12.76
2019-04-23T05:44:21.651Z,12.84
2019-04-23T05:45:21.723Z,12.86
2019-04-23T05:46:33.161Z,12.98
2019-04-23T05:47:35.671Z,12.94
2019-04-23T05:48:49.269Z,13.01
2019-04-23T05:49:51.955Z,13.02
2019-04-23T05:51:58.934Z,13.06
2019-04-23T05:53:11.496Z,13.23
2019-04-23T05:54:22.064Z,13.08
2019-04-23T05:55:18.701Z,13.20
2019-04-23T05:56:27.830Z,13.26
2019-04-23T05:57:36.260Z,13.23
2019-04-23T05:58:46.989Z,13.33
2019-04-23T05:59:48.474Z,13.36
2019-04-23T06:01:05.785Z,13.43
2019-04-23T06:03:11.985Z,13.42
2019-04-23T06:04:17.567Z,13.54
2019-04-23T06:05:30.951Z,13.61
2019-04-23T06:06:37.931Z,13.67
2019-04-23T06:07:35.777Z,13.62
2019-04-23T06:08:47.245Z,13.60
2019-04-23T06:09:56.326Z,13.64
2019-04-23T06:11:10.176Z,13.71
2019-04-23T06:11:59.767Z,13.71
2019-04-23T06:13:12.359Z,13.76
2019-04-23T06:14:35.279Z,13.80
2019-04-23T06:15:25.333Z,13.86
2019-04-23T06:17:29.672Z,13.91
2019-04-23T06:18:44.737Z,13.95
2019-04-23T06:19:52.584Z,14.00
2019-04-23T06:20:59.045Z,14.08
2019-04-23T06:22:11.191Z,14.03
2019-04-23T06:23:19.061Z,14.08
2019-04-23T06:24:23.046Z,14.08
2019-04-23T06:26:40.110Z,14.25
2019-04-23T06:27:32.040Z,14.18
2019-04-23T06:28:40.352Z,14.34
2019-04-23T06:29:43.145Z,14.28
2019-04-23T06:30:54.384Z,14.25
2019-04-23T06:32:14.915Z,14.33
2019-04-23T06:33:05.846Z,14.48
2019-04-23T06:34:20.214Z,14.45
2019-04-23T06:35:16.661Z,14.44
2019-04-23T06:36:30.732Z,14.45
2019-04-23T06:38:00.015Z,14.58
2019-04-23T06:38:49.643Z,14.52
2019-04-23T06:40:59.570Z,14.70
2019-04-23T06:43:05.387Z,14.79
2019-04-23T06:44:32.181Z,14.89
2019-04-23T06:45:15.885Z,14.92
2019-04-23T06:46:29.097Z,14.93
2019-04-23T06:47:24.844Z,15.04
2019-04-23T06:48:33.830Z,15.05
2019-04-23T06:49:49.484Z,15.15
2019-04-23T06:52:14.727Z,15.19
2019-04-23T06:53:02.029Z,15.23
2019-04-23T06:54:15.127Z,15.33
2019-04-23T06:55:18.430Z,15.45
2019-04-23T06:56:26.363Z,15.52
2019-04-23T06:57:41.236Z,15.60
2019-04-23T06:59:45.925Z,15.73
2019-04-23T07:00:48.018Z,15.83
2019-04-23T07:02:05.185Z,15.85
2019-04-23T07:03:00.908Z,15.98
2019-04-23T07:04:15.054Z,16.12
2019-04-23T07:05:15.828Z,16.24
2019-04-23T07:06:27.003Z,16.29
2019-04-23T07:08:42.989Z,16.50
2019-04-23T07:09:35.483Z,16.51
2019-04-23T07:10:49.461Z,16.59
2019-04-23T07:16:31.330Z,17.14
2019-04-23T07:17:35.042Z,17.10
2019-04-23T07:18:41.572Z,17.22
2019-04-23T07:19:50.149Z,17.35
2019-04-23T07:20:58.500Z,17.39
2019-04-23T07:22:08.225Z,17.41
2019-04-23T07:23:17.105Z,17.60
2019-04-23T07:27:31.762Z,18.06
2019-04-23T07:28:50.032Z,18.18
2019-04-23T07:31:05.503Z,18.26
2019-04-23T07:31:59.077Z,18.41
2019-04-23T07:33:11.929Z,18.46
2019-04-23T07:35:16.079Z,18.61
2019-04-23T07:36:29.534Z,18.66
2019-04-23T07:37:32.552Z,18.68
2019-04-23T07:38:47.436Z,18.82
2019-04-23T07:39:59.048Z,18.86
2019-04-23T07:40:58.747Z,18.85
2019-04-23T07:42:13.774Z,18.91
2019-04-23T07:43:09.086Z,18.88
2019-04-23T07:46:37.900Z,19.27
2019-04-23T07:47:36.379Z,19.41
2019-04-23T07:48:27.618Z,19.42
2019-04-23T07:49:52.247Z,19.44
2019-04-23T07:50:48.020Z,19.55
2019-04-23T07:52:03.497Z,19.56
2019-04-23T07:54:19.363Z,19.70
2019-04-23T07:55:25.499Z,19.85
2019-04-23T07:56:25.565Z,19.99
2019-04-23T07:57:30.547Z,19.97
2019-04-23T07:58:44.850Z,20.12
2019-04-23T07:59:50.243Z,20.18
2019-04-23T08:01:57.498Z,20.29
2019-04-23T08:03:13.550Z,20.42
2019-04-23T08:04:14.359Z,20.55
2019-04-23T08:05:22.518Z,20.55
2019-04-23T08:06:17.801Z,20.67
2019-04-23T08:07:29.723Z,20.73
2019-04-23T08:08:30.198Z,20.78
2019-04-23T08:10:02.348Z,20.78
2019-04-23T08:11:01.578Z,20.89
2019-04-23T08:12:04.802Z,20.93
2019-04-23T08:12:59.501Z,20.96
2019-04-23T08:14:03.572Z,21.00
2019-04-23T08:15:14.616Z,21.04
2019-04-23T08:16:34.309Z,21.05
2019-04-23T08:17:22.429Z,21.13
2019-04-23T08:18:41.462Z,21.26
2019-04-23T08:19:49.063Z,21.28
2019-04-23T08:21:58.249Z,21.37
2019-04-23T08:23:01.911Z,21.41
2019-04-23T08:25:14.373Z,21.29
2019-04-23T08:26:28.060Z,21.29
2019-04-23T08:27:25.019Z,21.35
2019-04-23T08:28:41.971Z,21.32
2019-04-23T08:29:45.884Z,21.32
2019-04-23T08:30:45.385Z,21.45
2019-04-23T08:31:52.759Z,21.53
2019-04-23T08:32:58.827Z,21.51
2019-04-23T08:34:23.945Z,21.63
2019-04-23T08:36:23.854Z,21.69
2019-04-23T08:37:27.002Z,21.66
2019-04-23T08:38:29.503Z,21.84
2019-04-23T08:39:38.629Z,21.83
2019-04-23T08:40:49.950Z,21.92
2019-04-23T08:42:09.761Z,21.89
2019-04-23T08:42:58.176Z,21.97
2019-04-23T08:44:09.229Z,22.14
2019-04-23T08:46:18.468Z,22.22
2019-04-23T08:47:31.875Z,22.25
2019-04-23T08:48:30.803Z,22.33
2019-04-23T08:50:38.398Z,22.23
2019-04-23T08:51:53.338Z,22.28
2019-04-23T08:53:00.170Z,22.33
2019-04-23T08:54:11.769Z,22.31
2019-04-23T08:55:28.691Z,22.38
2019-04-23T08:56:11.997Z,22.34
2019-04-23T08:57:31.890Z,22.36
2019-04-23T08:58:34.254Z,22.28
2019-04-23T08:59:38.766Z,22.33
2019-04-23T09:00:47.682Z,22.30
2019-04-23T09:02:10.447Z,22.40
2019-04-23T09:02:58.618Z,22.41
2019-04-23T09:04:00.793Z,22.49
2019-04-23T09:05:19.284Z,22.61
2019-04-23T09:06:15.960Z,22.59
2019-04-23T09:11:58.094Z,22.98
2019-04-23T09:13:09.089Z,23.06
2019-04-23T09:13:57.413Z,23.01
2019-04-23T09:15:09.984Z,23.02
2019-04-23T09:16:18.009Z,23.01
2019-04-23T09:18:26.226Z,23.06
2019-04-23T09:19:44.204Z,22.98
2019-04-23T09:21:49.707Z,22.92
2019-04-23T09:22:51.835Z,22.98
2019-04-23T09:23:56.191Z,23.11
2019-04-23T09:25:14.690Z,23.16
2019-04-23T09:26:06.191Z,23.25
2019-04-23T09:27:23.316Z,23.18
2019-04-23T09:28:34.871Z,23.28
2019-04-23T09:29:42.393Z,23.34
2019-04-23T09:30:38.785Z,23.51
2019-04-23T09:32:11.207Z,23.51
2019-04-23T09:32:51.606Z,23.49
2019-04-23T09:34:03.912Z,23.56
2019-04-23T09:35:14.430Z,23.62
2019-04-23T09:36:18.153Z,23.67
2019-04-23T09:37:19.486Z,23.82
2019-04-23T09:38:37.699Z,23.81
2019-04-23T09:40:50.410Z,23.79
2019-04-23T09:41:39.939Z,23.92
2019-04-23T09:42:54.370Z,23.94
2019-04-23T09:43:53.929Z,24.00
2019-04-23T09:46:12.303Z,24.04
2019-04-23T09:47:26.359Z,24.09
2019-04-23T09:48:18.312Z,24.10
2019-04-23T09:49:35.069Z,24.13
2019-04-23T09:50:38.379Z,24.18
2019-04-23T09:52:56.059Z,24.21
2019-04-23T09:53:56.291Z,24.21
2019-04-23T09:55:04.450Z,24.18
2019-04-23T09:56:01.100Z,24.16
2019-04-23T09:57:10.798Z,23.94
2019-04-23T09:58:15.473Z,23.94
2019-04-23T09:59:31.857Z,23.92
2019-04-23T10:00:38.069Z,23.96
2019-04-23T10:01:49.878Z,23.96
2019-04-23T10:02:33.997Z,24.03
2019-04-23T10:03:43.565Z,24.01
2019-04-23T10:04:48.692Z,24.00
2019-04-23T10:05:49.137Z,24.14
2019-04-23T10:07:02.045Z,24.26
2019-04-23T10:08:04.156Z,24.28
2019-04-23T10:09:02.667Z,24.21
2019-04-23T10:10:05.786Z,24.14
2019-04-23T10:11:07.424Z,24.13
2019-04-23T10:12:09.483Z,24.14
2019-04-23T10:13:11.520Z,24.13
2019-04-23T10:14:12.455Z,24.04
2019-04-23T10:15:21.711Z,24.00
2019-04-23T10:16:21.446Z,24.00
2019-04-23T10:17:24.497Z,24.06
2019-04-23T10:18:24.967Z,24.24
2019-04-23T10:19:26.733Z,24.26
2019-04-23T10:20:28.571Z,24.19
2019-04-23T10:21:29.442Z,24.01
2019-04-23T10:22:33.692Z,24.04
2019-04-23T10:23:35.024Z,23.95
2019-04-23T10:24:36.910Z,23.88
2019-04-23T10:25:38.333Z,23.82
2019-04-23T10:26:39.958Z,23.89
2019-04-23T10:27:41.297Z,24.07
2019-04-23T10:28:42.202Z,24.16
2019-04-23T10:29:43.673Z,24.25
2019-04-23T10:30:44.992Z,24.46
2019-04-23T10:31:45.983Z,24.48
2019-04-23T10:32:47.545Z,24.50
2019-04-23T10:33:48.352Z,24.55
2019-04-23T10:34:58.095Z,24.63
2019-04-23T10:36:02.704Z,24.66
2019-04-23T10:37:02.019Z,24.84
2019-04-23T10:38:06.634Z,24.99
2019-04-23T10:39:15.526Z,24.97
2019-04-23T10:40:22.679Z,24.99
2019-04-23T10:41:22.539Z,24.81
2019-04-23T10:42:25.435Z,24.78
2019-04-23T10:43:28.818Z,24.79
2019-04-23T10:44:32.777Z,24.74
2019-04-23T10:45:57.106Z,24.81
2019-04-23T10:47:10.874Z,24.81
2019-04-23T10:48:29.481Z,24.71
2019-04-23T10:50:35.536Z,24.77
2019-04-23T10:52:37.518Z,24.66
2019-04-23T10:53:56.247Z,24.77
2019-04-23T10:54:52.416Z,24.69
2019-04-23T10:56:18.525Z,24.78
2019-04-23T10:58:18.450Z,25.18
2019-04-23T10:59:19.761Z,25.34
2019-04-23T11:00:30.540Z,25.43
2019-04-23T11:01:39.156Z,25.68
2019-04-23T11:04:02.550Z,25.95
2019-04-23T11:08:11.896Z,26.27
2019-04-23T11:09:37.280Z,26.22
2019-04-23T11:10:23.876Z,26.36
2019-04-23T11:11:48.300Z,26.34
2019-04-23T11:12:42.406Z,26.45
2019-04-23T11:13:48.729Z,26.60
2019-04-23T11:14:57.927Z,26.70
2019-04-23T11:16:27.601Z,26.78
2019-04-23T11:17:30.345Z,26.89
2019-04-23T11:18:08.979Z,27.04
2019-04-23T11:19:25.818Z,27.04
2019-04-23T11:23:46.659Z,27.15
2019-04-23T11:24:48.893Z,27.10
2019-04-23T11:25:49.148Z,27.15
2019-04-23T11:27:09.592Z,27.23
2019-04-23T11:28:16.174Z,27.26
2019-04-23T11:29:21.053Z,27.22
2019-04-23T11:30:32.526Z,27.22
2019-04-23T11:32:47.057Z,27.43
2019-04-23T11:33:46.358Z,27.58
2019-04-23T11:35:06.883Z,27.79
2019-04-23T11:38:38.843Z,28.23
2019-04-23T11:39:32.429Z,28.40
2019-04-23T11:40:21.215Z,28.45
2019-04-23T11:41:32.389Z,28.68
2019-04-23T11:42:38.117Z,28.75
2019-04-23T11:43:39.488Z,28.83
2019-04-23T11:44:49.533Z,28.94
2019-04-23T11:46:01.130Z,28.94
2019-04-23T11:49:25.293Z,29.15
2019-04-23T11:50:27.795Z,29.22
2019-04-23T11:50:56.017Z,29.03
2019-04-23T11:52:51.574Z,29.16
2019-04-23T11:53:46.478Z,29.25
2019-04-23T11:54:43.550Z,29.39
2019-04-23T11:57:22.281Z,29.47
2019-04-23T11:59:15.824Z,29.55
2019-04-23T12:01:42.128Z,29.59
2019-04-23T12:02:38.927Z,29.71
2019-04-23T12:03:47.099Z,29.90
2019-04-23T12:04:57.655Z,30.20
2019-04-23T12:07:00.587Z,30.96
2019-04-23T12:08:09.692Z,32.68
2019-04-23T12:09:15.989Z,35.87
2019-04-23T12:10:22.261Z,38.28
2019-04-23T12:12:33.448Z,41.71
2019-04-23T12:13:56.519Z,43.32
2019-04-23T12:14:50.832Z,44.55
2019-04-23T12:15:53.943Z,45.67
2019-04-23T12:17:09.705Z,46.09
2019-04-23T12:18:05.298Z,46.02
2019-04-23T12:19:33.104Z,45.89
2019-04-23T12:20:34.601Z,46.32
2019-04-23T12:21:28.212Z,47.19
2019-04-23T12:23:40.603Z,48.58
2019-04-23T12:25:06.483Z,49.31
2019-04-23T12:25:49.875Z,50.28
2019-04-23T12:27:46.988Z,51.81
2019-04-23T12:29:16.990Z,52.42
2019-04-23T12:30:16.481Z,53.09
2019-04-23T12:31:26.697Z,53.28
2019-04-23T12:32:48.745Z,53.15
2019-04-23T12:33:43.999Z,53.21
2019-04-23T12:34:52.823Z,53.34
2019-04-23T12:35:42.339Z,53.40
2019-04-23T12:36:56.825Z,53.44
2019-04-23T12:38:03.323Z,53.50
2019-04-23T12:39:11.239Z,52.79
2019-04-23T12:40:24.991Z,52.82
2019-04-23T12:41:20.748Z,53.00
2019-04-23T12:43:27.470Z,53.27
2019-04-23T12:44:46.146Z,53.63
2019-04-23T12:45:57.851Z,53.85
2019-04-23T12:47:05.584Z,54.00
2019-04-23T12:48:11.280Z,54.12
2019-04-23T12:49:30.371Z,53.56
2019-04-23T12:51:36.564Z,51.98
2019-04-23T12:52:37.930Z,51.12
2019-04-23T12:53:37.724Z,50.97
2019-04-23T12:55:00.352Z,50.75
2019-04-23T12:58:09.904Z,50.90
2019-04-23T12:59:09.056Z,51.65
2019-04-23T13:01:22.616Z,51.88
2019-04-23T13:02:39.863Z,52.66
2019-04-23T13:04:43.641Z,52.55
2019-04-23T13:05:53.986Z,52.10
2019-04-23T13:06:56.308Z,51.94
2019-04-23T13:08:05.799Z,51.85
2019-04-23T13:09:19.510Z,51.58
2019-04-23T13:10:15.846Z,51.33
2019-04-23T13:11:23.318Z,50.87
2019-04-23T13:12:37.734Z,50.99
2019-04-23T13:13:37.609Z,50.73
2019-04-23T13:14:51.062Z,50.68
2019-04-23T13:15:48.818Z,50.70
2019-04-23T13:17:02.651Z,50.80
2019-04-23T13:19:15.054Z,49.74
2019-04-23T13:20:19.411Z,46.37
2019-04-23T13:21:38.420Z,44.21
2019-04-23T13:22:37.339Z,44.38
2019-04-23T13:24:46.241Z,47.28
2019-04-23T13:25:47.308Z,47.04
2019-04-23T13:26:56.545Z,46.46
2019-04-23T13:29:19.940Z,45.49
2019-04-23T13:30:23.325Z,46.13
2019-04-23T13:31:20.368Z,46.88
2019-04-23T13:32:39.142Z,47.45
2019-04-23T13:34:58.567Z,49.10
2019-04-23T13:37:05.218Z,50.73
2019-04-23T13:38:09.335Z,50.77
2019-04-23T13:39:14.734Z,50.31
2019-04-23T13:40:24.371Z,49.97
2019-04-23T13:41:20.076Z,49.91
2019-04-23T13:42:43.026Z,49.72
2019-04-23T13:44:50.922Z,50.20
2019-04-23T13:47:00.547Z,50.25
2019-04-23T13:48:07.017Z,50.37
2019-04-23T13:49:12.175Z,50.48
2019-04-23T13:50:35.566Z,50.67
2019-04-23T13:53:42.607Z,51.74
2019-04-23T13:55:01.407Z,52.05
2019-04-23T13:55:49.923Z,52.19
2019-04-23T13:59:30.294Z,50.77
2019-04-23T14:00:22.516Z,50.92
2019-04-23T14:02:36.858Z,51.35
2019-04-23T14:03:40.712Z,51.36
2019-04-23T14:05:51.254Z,50.31
2019-04-23T14:07:10.714Z,49.56
2019-04-23T14:08:33.578Z,48.07
2019-04-23T14:09:19.985Z,46.72
2019-04-23T14:10:31.241Z,44.82
2019-04-23T14:12:41.561Z,42.86
2019-04-23T14:16:03.730Z,42.62
2019-04-23T14:17:08.782Z,43.43
2019-04-23T14:18:29.188Z,45.37
2019-04-23T14:19:30.177Z,46.22
2019-04-23T14:20:21.518Z,46.96
2019-04-23T14:21:37.685Z,47.60
2019-04-23T14:23:00.083Z,48.20
2019-04-23T14:24:04.608Z,48.60
2019-04-23T14:25:04.473Z,48.77
2019-04-23T14:26:10.826Z,48.93
2019-04-23T14:27:01.156Z,49.03
2019-04-23T14:29:13.201Z,49.22
2019-04-23T14:31:25.752Z,48.39
2019-04-23T14:33:46.965Z,48.45
2019-04-23T14:34:54.437Z,48.46
2019-04-23T14:35:56.376Z,48.17
2019-04-23T14:38:21.878Z,47.98
2019-04-23T14:39:24.088Z,47.89
2019-04-23T14:40:35.538Z,47.58
2019-04-23T14:41:53.956Z,47.41
2019-04-23T14:43:56.150Z,47.35
2019-04-23T14:45:13.567Z,47.28
2019-04-23T14:47:22.045Z,43.35
2019-04-23T14:48:27.995Z,40.85
2019-04-23T14:49:29.446Z,38.84
2019-04-23T14:52:53.918Z,35.44
2019-04-23T14:53:48.017Z,34.78
2019-04-23T14:55:36.216Z,33.79
2019-04-23T14:57:15.918Z,32.44
2019-04-23T14:59:13.405Z,31.44
2019-04-23T15:00:33.481Z,31.04
2019-04-23T15:01:49.785Z,30.76
2019-04-23T15:02:44.975Z,30.40
2019-04-23T15:03:50.579Z,30.17
2019-04-23T15:04:54.566Z,29.83
2019-04-23T15:06:15.793Z,29.55
2019-04-23T15:07:21.234Z,29.47
2019-04-23T15:08:25.240Z,29.25
2019-04-23T15:09:27.633Z,28.97
2019-04-23T15:10:42.281Z,28.75
2019-04-23T15:11:45.368Z,28.50
2019-04-23T15:12:46.246Z,28.27
2019-04-23T15:14:01.977Z,28.06
2019-04-23T15:15:21.252Z,27.82
2019-04-23T15:16:28.353Z,27.57
2019-04-23T15:17:34.073Z,27.41
2019-04-23T15:18:54.645Z,27.23
2019-04-23T15:21:26.116Z,27.00
2019-04-23T15:23:38.446Z,26.91
2019-04-23T15:24:22.982Z,26.70
2019-04-23T15:27:15.786Z,26.96
2019-04-23T15:27:29.590Z,26.30
2019-04-23T15:28:24.941Z,26.07
2019-04-23T15:29:38.719Z,25.92
2019-04-23T15:31:02.415Z,25.91
2019-04-23T15:35:29.535Z,25.51
2019-04-23T15:36:48.545Z,25.48
2019-04-23T15:39:58.868Z,25.37
2019-04-23T15:41:01.915Z,25.26
2019-04-23T15:42:16.787Z,25.29
2019-04-23T15:43:10.573Z,25.22
2019-04-23T15:44:13.656Z,25.24
2019-04-23T15:45:24.370Z,25.21
2019-04-23T15:47:45.316Z,25.33
2019-04-23T15:48:49.690Z,25.25
2019-04-23T15:49:57.413Z,25.29
2019-04-23T15:51:05.710Z,25.30
2019-04-23T15:52:06.248Z,25.36
2019-04-23T15:53:17.623Z,25.19
2019-04-23T15:54:22.535Z,25.19
2019-04-23T15:55:22.472Z,24.94
2019-04-23T15:56:35.758Z,24.89
2019-04-23T15:57:54.381Z,24.89
2019-04-23T15:58:56.073Z,24.96
2019-04-23T15:59:48.197Z,24.85
2019-04-23T16:01:06.091Z,24.85
2019-04-23T16:01:43.229Z,24.88
2019-04-23T16:02:44.258Z,24.84
2019-04-23T16:03:47.304Z,24.86
2019-04-23T16:04:51.096Z,24.92
2019-04-23T16:05:52.957Z,24.89
2019-04-23T16:06:54.012Z,24.89
2019-04-23T16:08:13.114Z,24.86
2019-04-23T16:09:28.486Z,24.82
2019-04-23T16:10:47.355Z,24.78
2019-04-23T16:12:56.729Z,24.77
2019-04-23T16:14:17.017Z,24.69
2019-04-23T16:15:06.513Z,24.63
2019-04-23T16:16:18.801Z,24.61
2019-04-23T16:18:37.170Z,24.41
2019-04-23T16:19:59.658Z,24.32
2019-04-23T16:20:58.608Z,24.32
2019-04-23T16:22:00.235Z,24.13
2019-04-23T16:22:51.408Z,24.11
2019-04-23T16:24:05.985Z,24.13
2019-04-23T16:25:12.796Z,24.03
2019-04-23T16:26:28.858Z,24.11
2019-04-23T16:27:17.003Z,24.06
2019-04-23T16:28:52.079Z,24.06
2019-04-23T16:30:40.800Z,23.92
2019-04-23T16:31:49.581Z,23.92
2019-04-23T16:33:03.712Z,23.85
2019-04-23T16:34:17.783Z,23.86
2019-04-23T16:35:17.951Z,23.81
2019-04-23T16:36:19.767Z,23.79
2019-04-23T16:37:22.100Z,23.74
2019-04-23T16:38:38.285Z,23.85
2019-04-23T16:39:31.427Z,23.77
2019-04-23T16:43:05.459Z,23.64
2019-04-23T16:44:09.425Z,23.52
2019-04-23T16:45:15.179Z,23.54
2019-04-23T16:46:21.479Z,23.51
2019-04-23T16:47:26.107Z,23.48
2019-04-23T16:48:40.663Z,23.32
2019-04-23T16:49:42.084Z,23.34
2019-04-23T16:51:04.756Z,23.28
2019-04-23T16:51:47.818Z,23.13
2019-04-23T16:53:09.191Z,23.11
2019-04-23T16:54:11.385Z,23.21
2019-04-23T16:55:19.316Z,23.21
2019-04-23T16:57:43.820Z,23.11
2019-04-23T17:00:07.450Z,23.07
2019-04-23T17:01:01.173Z,22.91
2019-04-23T17:01:50.433Z,22.93
2019-04-23T17:03:07.918Z,22.83
2019-04-23T17:04:11.702Z,22.86
2019-04-23T17:05:24.953Z,22.83
2019-04-23T17:06:15.876Z,22.95
2019-04-23T17:07:20.965Z,22.88
2019-04-23T17:09:42.680Z,22.81
2019-04-23T17:10:53.337Z,22.78
2019-04-23T17:14:33.899Z,22.70
2019-04-23T17:16:15.266Z,22.61
2019-04-23T17:16:59.825Z,22.67
2019-04-23T17:18:24.494Z,22.70
2019-04-23T17:20:00.459Z,22.77
2019-04-23T17:21:38.986Z,22.74
2019-04-23T17:22:46.966Z,22.68
2019-04-23T17:27:52.503Z,22.58
2019-04-23T17:29:00.396Z,22.49
2019-04-23T17:30:32.478Z,22.59
2019-04-23T17:32:46.863Z,22.49
2019-04-23T17:35:04.694Z,22.34
2019-04-23T17:36:18.264Z,22.34
2019-04-23T17:38:42.695Z,22.30
2019-04-23T17:39:47.518Z,22.28
2019-04-23T17:41:05.890Z,22.18
2019-04-23T17:43:06.365Z,22.18
2019-04-23T17:44:38.277Z,22.08
2019-04-23T17:45:32.219Z,22.07
2019-04-23T17:46:37.542Z,21.97
2019-04-23T17:47:52.191Z,21.92
2019-04-23T17:48:55.339Z,22.00
2019-04-23T17:50:23.452Z,21.94
2019-04-23T17:51:28.053Z,21.89
2019-04-23T17:52:41.812Z,21.85
2019-04-23T17:53:59.646Z,21.77
2019-04-23T17:54:56.670Z,21.69